createdAt,value
2023-01-17T00:02:17.938Z,10.37
2023-01-17T00:05:04.069Z,10.00
2023-01-17T00:07:50.254Z,9.83
2023-01-17T00:10:19.082Z,9.23
2023-01-17T00:12:52.311Z,10.97
2023-01-17T00:15:21.072Z,9.90
2023-01-17T00:17:49.141Z,10.47
2023-01-17T00:20:41.409Z,9.97
2023-01-17T00:23:38.945Z,9.13
2023-01-17T00:26:18.378Z,9.90
2023-01-17T00:28:46.201Z,10.13
2023-01-17T00:31:14.957Z,10.50
2023-01-17T00:33:42.321Z,10.97
2023-01-17T00:36:10.366Z,9.87
2023-01-17T00:38:39.349Z,9.20
2023-01-17T00:41:12.355Z,9.33
2023-01-17T00:43:58.864Z,8.57
2023-01-17T00:46:45.253Z,9.27
2023-01-17T00:49:30.924Z,9.90
2023-01-17T00:52:16.633Z,9.60
2023-01-17T00:55:02.402Z,8.90
2023-01-17T00:57:48.178Z,9.60
2023-01-17T01:00:35.628Z,8.50
2023-01-17T01:03:28.254Z,8.20
2023-01-17T01:06:14.164Z,8.80
2023-01-17T01:08:59.887Z,9.37
2023-01-17T01:11:45.822Z,10.63
2023-01-17T01:14:31.436Z,9.67
2023-01-17T01:17:16.980Z,9.10
2023-01-17T01:20:02.825Z,10.40
2023-01-17T01:22:48.496Z,9.47
2023-01-17T01:25:34.234Z,9.43
2023-01-17T01:28:25.271Z,8.60
2023-01-17T01:31:11.185Z,7.70
2023-01-17T01:33:38.564Z,5.63
2023-01-17T01:36:08.493Z,6.40
2023-01-17T01:38:35.670Z,5.47
2023-01-17T01:41:02.837Z,4.60
2023-01-17T01:43:44.134Z,5.73
2023-01-17T01:46:17.115Z,5.33
2023-01-17T01:49:02.681Z,5.70
2023-01-17T01:51:52.639Z,5.37
2023-01-17T01:54:25.626Z,4.80
2023-01-17T01:56:54.657Z,4.37
2023-01-17T01:59:23.059Z,3.27
2023-01-17T02:01:52.487Z,2.67
2023-01-17T02:04:21.393Z,2.43
2023-01-17T02:06:58.310Z,2.47
2023-01-17T02:09:25.516Z,5.33
2023-01-17T02:11:52.702Z,6.23
2023-01-17T02:14:21.611Z,6.70
2023-01-17T02:17:19.926Z,5.90
2023-01-17T02:19:59.140Z,6.80
2023-01-17T02:22:44.313Z,7.63
2023-01-17T02:25:17.330Z,6.80
2023-01-17T02:28:15.648Z,6.20
2023-01-17T02:30:51.262Z,6.87
2023-01-17T02:33:50.476Z,7.23
2023-01-17T02:36:32.959Z,6.70
2023-01-17T02:39:08.028Z,6.60
2023-01-17T02:41:39.250Z,6.77
2023-01-17T02:44:10.129Z,6.70
2023-01-17T02:46:54.976Z,6.63
2023-01-17T02:49:27.255Z,5.77
2023-01-17T02:52:15.693Z,6.00
2023-01-17T02:55:09.338Z,5.03
2023-01-17T02:57:54.998Z,5.80
2023-01-17T03:00:27.509Z,3.60
2023-01-17T03:03:11.327Z,4.27
2023-01-17T03:05:54.257Z,4.93
2023-01-17T03:08:22.526Z,4.70
2023-01-17T03:10:50.074Z,4.37
2023-01-17T03:13:17.285Z,4.83
2023-01-17T03:15:45.260Z,4.40
2023-01-17T03:18:16.265Z,4.40
2023-01-17T03:20:43.426Z,4.90
2023-01-17T03:23:10.733Z,3.80
2023-01-17T03:25:37.902Z,3.50
2023-01-17T03:28:05.274Z,4.27
2023-01-17T03:30:32.612Z,2.77
2023-01-17T03:32:59.807Z,3.40
2023-01-17T03:35:28.388Z,3.73
2023-01-17T03:37:56.698Z,3.70
2023-01-17T03:40:23.890Z,4.80
2023-01-17T03:42:51.145Z,4.63
2023-01-17T03:45:18.299Z,5.03
2023-01-17T03:47:45.778Z,4.57
2023-01-17T03:50:13.585Z,4.73
2023-01-17T03:52:40.757Z,5.17
2023-01-17T03:55:08.365Z,5.60
2023-01-17T03:57:35.600Z,5.33
2023-01-17T04:00:02.825Z,5.13
2023-01-17T04:02:29.943Z,4.70
2023-01-17T04:04:57.223Z,5.17
2023-01-17T04:07:24.371Z,4.97
2023-01-17T04:09:51.606Z,4.33
2023-01-17T04:12:18.825Z,4.30
2023-01-17T04:14:46.095Z,5.20
2023-01-17T04:17:14.501Z,4.93
2023-01-17T04:19:41.758Z,4.20
2023-01-17T04:22:09.010Z,4.20
2023-01-17T04:24:36.346Z,4.03
2023-01-17T04:27:05.455Z,4.77
2023-01-17T04:29:32.786Z,4.90
2023-01-17T04:31:59.934Z,4.50
2023-01-17T04:34:27.282Z,5.37
2023-01-17T04:36:54.525Z,5.17
2023-01-17T04:39:21.693Z,4.70
2023-01-17T04:41:48.874Z,4.30
2023-01-17T04:44:16.065Z,4.00
2023-01-17T04:46:43.224Z,2.80
2023-01-17T04:49:10.527Z,3.50
2023-01-17T04:51:37.679Z,2.90
2023-01-17T04:54:04.872Z,2.60
2023-01-17T04:56:32.060Z,3.77
2023-01-17T04:58:59.463Z,3.07
2023-01-17T05:01:45.160Z,3.20
2023-01-17T05:04:12.317Z,3.33
2023-01-17T05:06:39.541Z,3.00
2023-01-17T05:09:07.191Z,2.87
2023-01-17T05:11:34.382Z,3.30
2023-01-17T05:14:01.548Z,3.40
2023-01-17T05:16:28.740Z,3.20
2023-01-17T05:18:55.889Z,3.50
2023-01-17T05:21:23.451Z,4.13
2023-01-17T05:23:50.873Z,5.10
2023-01-17T05:26:18.067Z,4.30
2023-01-17T05:28:45.337Z,5.90
2023-01-17T05:31:12.524Z,5.63
2023-01-17T05:33:39.711Z,5.50
2023-01-17T05:36:07.345Z,5.90
2023-01-17T05:38:34.557Z,5.47
2023-01-17T05:41:02.313Z,5.60
2023-01-17T05:43:29.445Z,5.80
2023-01-17T05:45:56.707Z,5.07
2023-01-17T05:48:23.829Z,6.40
2023-01-17T05:50:52.464Z,6.57
2023-01-17T05:53:19.565Z,6.93
2023-01-17T05:55:47.781Z,5.70
2023-01-17T05:58:17.731Z,6.70
2023-01-17T06:00:45.458Z,5.20
2023-01-17T06:03:13.071Z,4.07
2023-01-17T06:05:40.403Z,3.30
2023-01-17T06:08:07.785Z,2.90
2023-01-17T06:10:35.102Z,3.50
2023-01-17T06:13:08.044Z,3.60
2023-01-17T06:15:37.298Z,3.57
2023-01-17T06:18:09.936Z,3.60
2023-01-17T06:20:39.574Z,3.47
2023-01-17T06:23:10.882Z,3.20
2023-01-17T06:25:46.485Z,1.80
2023-01-17T06:28:18.861Z,3.40
2023-01-17T06:30:46.222Z,3.03
2023-01-17T06:33:13.824Z,3.27
2023-01-17T06:35:47.197Z,3.13
2023-01-17T06:38:14.843Z,3.40
2023-01-17T06:40:42.127Z,3.40
2023-01-17T06:43:09.317Z,2.93
2023-01-17T06:45:36.660Z,4.00
2023-01-17T06:48:05.529Z,3.83
2023-01-17T06:50:34.141Z,4.40
2023-01-17T06:53:03.723Z,4.10
2023-01-17T06:55:33.740Z,3.93
2023-01-17T06:58:02.874Z,4.20
2023-01-17T07:00:31.883Z,3.67
2023-01-17T07:02:59.160Z,4.40
2023-01-17T07:05:28.481Z,4.50
2023-01-17T07:07:55.965Z,5.90
2023-01-17T07:10:23.681Z,7.10
2023-01-17T07:12:51.478Z,8.23
2023-01-17T07:15:18.735Z,8.30
2023-01-17T07:17:45.906Z,9.20
2023-01-17T07:20:13.597Z,9.43
2023-01-17T07:22:45.066Z,9.47
2023-01-17T07:25:12.719Z,9.17
2023-01-17T07:27:39.886Z,7.80
2023-01-17T07:30:07.661Z,9.50
2023-01-17T07:32:35.382Z,7.20
2023-01-17T07:35:02.491Z,7.63
2023-01-17T07:37:29.695Z,8.47
2023-01-17T07:39:56.953Z,7.27
2023-01-17T07:42:24.489Z,6.07
2023-01-17T07:44:51.647Z,5.87
2023-01-17T07:47:19.984Z,5.70
2023-01-17T07:49:47.265Z,5.70
2023-01-17T07:52:16.298Z,5.50
2023-01-17T07:54:44.639Z,5.90
2023-01-17T07:57:12.578Z,5.60
2023-01-17T07:59:39.775Z,6.27
2023-01-17T08:02:19.317Z,5.83
2023-01-17T08:04:47.080Z,5.50
2023-01-17T08:07:14.753Z,5.67
2023-01-17T08:09:43.819Z,6.73
2023-01-17T08:12:11.024Z,6.17
2023-01-17T08:14:38.148Z,5.60
2023-01-17T08:17:06.598Z,5.50
2023-01-17T08:19:33.823Z,4.97
2023-01-17T08:22:01.002Z,5.40
2023-01-17T08:24:28.248Z,4.57
2023-01-17T08:26:56.314Z,3.90
2023-01-17T08:29:24.314Z,4.73
2023-01-17T08:31:52.174Z,4.87
2023-01-17T08:34:19.472Z,4.37
2023-01-17T08:36:47.960Z,4.17
2023-01-17T08:39:15.156Z,3.40
2023-01-17T08:41:42.327Z,2.97
2023-01-17T08:44:09.528Z,3.97
2023-01-17T08:46:41.316Z,3.83
2023-01-17T08:49:11.952Z,4.40
2023-01-17T08:51:39.726Z,3.87
2023-01-17T08:54:07.155Z,5.27
2023-01-17T08:56:35.005Z,5.60
2023-01-17T08:59:03.116Z,6.57
2023-01-17T09:01:30.641Z,5.90
2023-01-17T09:03:57.843Z,5.80
2023-01-17T09:06:25.053Z,4.93
2023-01-17T09:08:54.667Z,5.33
2023-01-17T09:11:21.957Z,5.83
2023-01-17T09:13:49.114Z,5.97
2023-01-17T09:16:16.284Z,5.70
2023-01-17T09:18:43.424Z,5.57
2023-01-17T09:21:16.692Z,3.80
2023-01-17T09:23:44.794Z,3.97
2023-01-17T09:26:30.786Z,3.97
2023-01-17T09:28:58.734Z,3.40
2023-01-17T09:31:27.297Z,5.00
2023-01-17T09:33:55.959Z,4.87
2023-01-17T09:36:23.994Z,5.63
2023-01-17T09:38:59.039Z,6.43
2023-01-17T09:41:32.481Z,5.10
2023-01-17T09:44:20.329Z,5.50
2023-01-17T09:46:50.344Z,4.90
2023-01-17T09:49:41.799Z,5.30
2023-01-17T09:52:18.369Z,4.77
2023-01-17T09:54:48.110Z,4.80
2023-01-17T09:57:29.037Z,4.90
2023-01-17T10:00:14.449Z,4.60
2023-01-17T10:02:53.919Z,5.43
2023-01-17T10:06:11.712Z,5.60
2023-01-17T10:09:00.627Z,4.87
2023-01-17T10:12:18.987Z,4.63
2023-01-17T10:14:48.736Z,5.07
2023-01-17T10:18:03.775Z,5.60
2023-01-17T10:20:54.177Z,5.20
2023-01-17T10:23:34.003Z,5.80
2023-01-17T10:26:04.482Z,4.90
2023-01-17T10:28:51.110Z,5.10
2023-01-17T10:31:27.480Z,4.70
2023-01-17T10:34:11.665Z,5.77
2023-01-17T10:36:54.141Z,5.20
2023-01-17T10:39:28.317Z,4.77
2023-01-17T10:42:07.266Z,4.80
2023-01-17T10:44:47.800Z,5.30
2023-01-17T10:47:23.663Z,4.57
2023-01-17T10:49:58.442Z,3.90
2023-01-17T10:52:57.900Z,4.40
2023-01-17T10:55:43.740Z,4.60
2023-01-17T10:58:14.425Z,4.07
2023-01-17T11:00:48.470Z,4.60
2023-01-17T11:03:20.901Z,4.70
2023-01-17T11:06:21.126Z,4.40
2023-01-17T11:08:58.301Z,5.37
2023-01-17T11:11:32.014Z,5.13
2023-01-17T11:14:03.589Z,6.10
2023-01-17T11:16:31.991Z,5.73
2023-01-17T11:19:23.221Z,5.47
2023-01-17T11:22:04.873Z,4.73
2023-01-17T11:24:36.509Z,4.90
2023-01-17T11:27:22.791Z,3.97
2023-01-17T11:30:16.361Z,4.33
2023-01-17T11:33:26.632Z,3.77
2023-01-17T11:35:53.831Z,4.40
2023-01-17T11:38:24.497Z,4.13
2023-01-17T11:41:12.349Z,4.40
2023-01-17T11:43:55.099Z,4.47
2023-01-17T11:46:23.949Z,4.70
2023-01-17T11:48:56.052Z,4.70
2023-01-17T11:51:42.014Z,3.83
2023-01-17T11:54:19.669Z,3.70
2023-01-17T11:56:46.889Z,4.17
2023-01-17T11:59:24.639Z,3.73
2023-01-17T12:02:19.574Z,4.30
2023-01-17T12:05:23.559Z,3.90
2023-01-17T12:08:09.190Z,4.10
2023-01-17T12:10:49.601Z,5.13
2023-01-17T12:14:01.323Z,5.50
2023-01-17T12:16:50.320Z,5.87
2023-01-17T12:19:45.691Z,6.57
2023-01-17T12:22:21.801Z,6.10
2023-01-17T12:25:11.999Z,6.70
2023-01-17T12:28:11.450Z,9.80
2023-01-17T12:30:47.647Z,7.90
2023-01-17T12:33:33.543Z,8.57
2023-01-17T12:36:17.584Z,8.50
2023-01-17T12:38:48.125Z,7.07
2023-01-17T12:41:24.382Z,6.77
2023-01-17T12:43:56.472Z,7.00
2023-01-17T12:46:29.371Z,6.53
2023-01-17T12:49:26.038Z,6.60
2023-01-17T12:52:03.389Z,7.53
2023-01-17T12:54:47.109Z,6.47
2023-01-17T12:57:38.199Z,6.30
2023-01-17T13:00:08.239Z,6.67
2023-01-17T13:02:53.170Z,7.63
2023-01-17T13:05:23.793Z,6.90
2023-01-17T13:07:59.821Z,6.33
2023-01-17T13:10:38.916Z,6.80
2023-01-17T13:13:22.519Z,6.70
2023-01-17T13:15:52.541Z,7.40
2023-01-17T13:18:25.732Z,7.30
2023-01-17T13:21:19.660Z,6.77
2023-01-17T13:24:16.977Z,7.03
2023-01-17T13:26:56.533Z,6.47
2023-01-17T13:29:58.067Z,6.23
2023-01-17T13:32:37.287Z,7.10
2023-01-17T13:35:41.996Z,6.77
2023-01-17T13:38:27.191Z,7.23
2023-01-17T13:41:38.734Z,6.47
2023-01-17T13:44:21.544Z,6.50
2023-01-17T13:47:08.148Z,6.43
2023-01-17T13:49:40.984Z,6.43
2023-01-17T13:52:20.307Z,5.43
2023-01-17T13:54:53.051Z,5.70
2023-01-17T13:57:29.332Z,5.97
2023-01-17T13:59:59.297Z,5.47
2023-01-17T14:02:32.616Z,6.80
2023-01-17T14:05:21.361Z,6.07
2023-01-17T14:07:55.862Z,6.43
2023-01-17T14:10:37.928Z,6.47
2023-01-17T14:13:24.737Z,6.10
2023-01-17T14:15:52.441Z,6.13
2023-01-17T14:18:46.089Z,6.33
2023-01-17T14:21:33.641Z,5.57
2023-01-17T14:24:18.144Z,5.87
2023-01-17T14:27:19.680Z,6.13
2023-01-17T14:29:52.408Z,6.17
2023-01-17T14:32:23.404Z,5.90
2023-01-17T14:34:53.153Z,5.40
2023-01-17T14:37:32.768Z,5.70
2023-01-17T14:40:00.837Z,5.73
2023-01-17T14:42:30.606Z,5.93
2023-01-17T14:45:07.754Z,5.80
2023-01-17T14:47:39.415Z,6.57
2023-01-17T14:50:29.317Z,6.47
2023-01-17T14:53:10.068Z,6.83
2023-01-17T14:55:38.333Z,6.67
2023-01-17T14:58:05.745Z,7.40
2023-01-17T15:00:39.326Z,6.07
2023-01-17T15:03:12.115Z,5.80
2023-01-17T15:05:46.927Z,4.80
2023-01-17T15:08:16.160Z,6.23
2023-01-17T15:11:05.794Z,5.20
2023-01-17T15:13:44.417Z,5.40
2023-01-17T15:16:34.124Z,5.30
2023-01-17T15:19:02.110Z,5.27
2023-01-17T15:21:40.696Z,5.60
2023-01-17T15:24:26.359Z,7.40
2023-01-17T15:26:54.639Z,9.00
2023-01-17T15:29:26.754Z,8.60
2023-01-17T15:32:02.341Z,8.70
2023-01-17T15:34:39.641Z,9.00
2023-01-17T15:37:21.446Z,7.60
2023-01-17T15:39:48.761Z,7.60
2023-01-17T15:42:23.749Z,7.57
2023-01-17T15:44:56.943Z,6.10
2023-01-17T15:47:32.116Z,6.00
2023-01-17T15:50:00.719Z,5.20
2023-01-17T15:52:28.628Z,5.70
2023-01-17T15:55:12.519Z,5.80
2023-01-17T15:57:40.254Z,5.77
2023-01-17T16:00:08.745Z,5.23
2023-01-17T16:02:55.864Z,5.80
2023-01-17T16:05:31.020Z,5.40
2023-01-17T16:08:04.659Z,5.97
2023-01-17T16:10:35.721Z,5.43
2023-01-17T16:13:04.817Z,5.57
2023-01-17T16:15:32.361Z,5.77
2023-01-17T16:18:15.479Z,6.20
2023-01-17T16:21:08.041Z,6.23
2023-01-17T16:23:35.164Z,7.30
2023-01-17T16:26:02.333Z,6.70
2023-01-17T16:28:29.508Z,7.47
2023-01-17T16:30:56.692Z,6.60
2023-01-17T16:33:23.880Z,6.80
2023-01-17T16:35:54.006Z,6.80
2023-01-17T16:38:21.212Z,6.80
2023-01-17T16:40:48.853Z,6.83
2023-01-17T16:43:18.643Z,6.30
2023-01-17T16:45:48.511Z,6.73
2023-01-17T16:48:17.717Z,6.43
2023-01-17T16:50:52.315Z,6.83
2023-01-17T16:53:24.343Z,7.53
2023-01-17T16:55:56.277Z,7.63
2023-01-17T16:58:23.654Z,7.97
2023-01-17T17:00:50.834Z,8.90
2023-01-17T17:03:20.120Z,9.90
2023-01-17T17:06:00.104Z,10.00
2023-01-17T17:08:29.483Z,10.80
2023-01-17T17:11:07.887Z,9.70
2023-01-17T17:13:37.874Z,8.20
2023-01-17T17:16:17.656Z,9.00
2023-01-17T17:18:46.991Z,10.20
2023-01-17T17:21:14.770Z,10.17
2023-01-17T17:23:41.990Z,12.43
2023-01-17T17:26:09.196Z,6.13
2023-01-17T17:28:36.663Z,7.60
2023-01-17T17:31:12.803Z,7.13
2023-01-17T17:33:40.164Z,7.17
2023-01-17T17:36:10.250Z,8.40
2023-01-17T17:38:51.057Z,7.57
2023-01-17T17:41:24.678Z,7.50
2023-01-17T17:43:52.412Z,7.20
2023-01-17T17:46:24.510Z,9.37
2023-01-17T17:48:51.729Z,9.30
2023-01-17T17:51:39.565Z,10.23
2023-01-17T17:54:12.303Z,9.20
2023-01-17T17:56:40.493Z,7.50
2023-01-17T17:59:09.143Z,7.67
2023-01-17T18:01:40.952Z,8.60
2023-01-17T18:04:08.688Z,8.57
2023-01-17T18:06:36.203Z,7.97
2023-01-17T18:09:03.917Z,8.77
2023-01-17T18:11:32.121Z,7.60
2023-01-17T18:14:01.705Z,9.50
2023-01-17T18:16:31.868Z,9.10
2023-01-17T18:18:59.556Z,8.87
2023-01-17T18:21:32.250Z,10.90
2023-01-17T18:24:02.652Z,10.27
2023-01-17T18:26:35.433Z,10.20
2023-01-17T18:29:04.375Z,9.63
2023-01-17T18:31:32.051Z,9.33
2023-01-17T18:34:03.234Z,9.50
2023-01-17T18:36:31.094Z,10.17
2023-01-17T18:38:58.714Z,9.90
2023-01-17T18:41:28.446Z,10.90
2023-01-17T18:43:56.241Z,10.53
2023-01-17T18:46:25.853Z,9.07
2023-01-17T18:48:56.713Z,9.50
2023-01-17T18:51:23.954Z,8.67
2023-01-17T18:53:53.043Z,8.10
2023-01-17T18:56:21.705Z,9.07
2023-01-17T18:58:50.155Z,7.60
2023-01-17T19:01:23.709Z,7.80
2023-01-17T19:03:53.457Z,8.83
2023-01-17T19:06:27.346Z,9.20
2023-01-17T19:08:54.972Z,8.83
2023-01-17T19:11:24.128Z,8.40
2023-01-17T19:13:52.499Z,7.80
2023-01-17T19:16:26.538Z,8.30
2023-01-17T19:18:55.763Z,8.27
2023-01-17T19:21:27.658Z,9.63
2023-01-17T19:23:58.050Z,10.37
2023-01-17T19:26:27.437Z,10.00
2023-01-17T19:28:56.830Z,9.50
2023-01-17T19:31:29.548Z,8.70
2023-01-17T19:33:59.291Z,10.60
2023-01-17T19:36:33.967Z,10.37
2023-01-17T19:39:05.719Z,11.63
2023-01-17T19:41:41.171Z,10.63
2023-01-17T19:44:11.469Z,11.70
2023-01-17T19:46:39.100Z,10.87
2023-01-17T19:49:08.818Z,10.33
2023-01-17T19:51:36.529Z,10.10
2023-01-17T19:54:06.450Z,9.90
2023-01-17T19:56:33.928Z,9.20
2023-01-17T19:59:01.977Z,10.77
2023-01-17T20:01:31.812Z,11.70
2023-01-17T20:04:00.982Z,11.67
2023-01-17T20:06:31.158Z,10.00
2023-01-17T20:08:58.530Z,10.30
2023-01-17T20:11:27.217Z,10.77
2023-01-17T20:13:56.502Z,11.10
2023-01-17T20:16:25.389Z,10.47
2023-01-17T20:18:53.122Z,11.00
2023-01-17T20:21:23.106Z,12.73
2023-01-17T20:23:51.476Z,17.33
2023-01-17T20:26:31.028Z,18.90
2023-01-17T20:28:58.281Z,17.97
2023-01-17T20:31:25.912Z,15.37
2023-01-17T20:33:55.013Z,15.43
2023-01-17T20:36:24.841Z,15.93
2023-01-17T20:38:53.352Z,18.70
2023-01-17T20:41:31.243Z,19.53
2023-01-17T20:44:00.430Z,18.90
2023-01-17T20:46:31.098Z,19.10
2023-01-17T20:49:00.567Z,12.93
2023-01-17T20:51:29.597Z,10.77
2023-01-17T20:54:02.679Z,16.40
2023-01-17T20:56:34.500Z,13.60
2023-01-17T20:59:07.629Z,12.40
2023-01-17T21:01:38.484Z,11.97
2023-01-17T21:04:10.130Z,10.50
2023-01-17T21:06:39.778Z,11.37
2023-01-17T21:09:08.874Z,11.23
2023-01-17T21:11:37.013Z,10.67
2023-01-17T21:14:07.433Z,11.93
2023-01-17T21:16:35.091Z,12.10
2023-01-17T21:19:02.702Z,11.57
2023-01-17T21:21:30.096Z,12.63
2023-01-17T21:23:59.236Z,12.20
2023-01-17T21:26:28.399Z,11.20
2023-01-17T21:28:55.823Z,11.50
2023-01-17T21:31:27.074Z,14.90
2023-01-17T21:33:59.535Z,15.33
2023-01-17T21:36:33.293Z,17.80
2023-01-17T21:39:04.892Z,17.60
2023-01-17T21:41:37.964Z,16.33
2023-01-17T21:44:12.822Z,17.00
2023-01-17T21:46:40.878Z,19.97
2023-01-17T21:49:11.813Z,19.30
2023-01-17T21:51:55.384Z,20.00
2023-01-17T21:54:45.267Z,17.93
2023-01-17T21:57:33.233Z,20.30
2023-01-17T22:00:00.493Z,18.13
2023-01-17T22:02:27.676Z,17.20
2023-01-17T22:04:56.241Z,15.87
2023-01-17T22:07:26.970Z,15.47
2023-01-17T22:09:54.627Z,13.63
2023-01-17T22:12:21.731Z,13.67
2023-01-17T22:14:48.868Z,15.27
2023-01-17T22:17:16.111Z,14.93
2023-01-17T22:19:43.298Z,13.90
2023-01-17T22:22:10.446Z,14.43
2023-01-17T22:24:37.703Z,10.97
2023-01-17T22:27:04.948Z,11.73
2023-01-17T22:29:34.069Z,13.20
2023-01-17T22:32:01.238Z,13.73
2023-01-17T22:34:28.394Z,11.90
2023-01-17T22:36:55.608Z,12.57
2023-01-17T22:39:22.796Z,12.60
2023-01-17T22:41:50.035Z,12.60
2023-01-17T22:44:17.202Z,13.63
2023-01-17T22:46:44.413Z,13.40
2023-01-17T22:49:13.358Z,13.70
2023-01-17T22:51:40.557Z,11.67
2023-01-17T22:54:07.726Z,8.60
2023-01-17T22:56:34.981Z,8.40
2023-01-17T22:59:02.436Z,8.03
2023-01-17T23:01:32.559Z,8.40
2023-01-17T23:04:02.301Z,7.73
2023-01-17T23:06:34.831Z,8.43
2023-01-17T23:09:08.493Z,8.90
2023-01-17T23:11:41.233Z,9.90
2023-01-17T23:14:15.816Z,9.30
2023-01-17T23:17:09.145Z,8.43
2023-01-17T23:19:43.585Z,7.80
2023-01-17T23:22:21.752Z,8.60
2023-01-17T23:24:51.840Z,7.00
2023-01-17T23:27:42.043Z,9.43
2023-01-17T23:30:34.864Z,10.20
2023-01-17T23:33:13.241Z,12.07
2023-01-17T23:35:43.150Z,10.73
2023-01-17T23:38:26.231Z,11.00
2023-01-17T23:41:17.295Z,12.10
2023-01-17T23:43:44.704Z,9.30
2023-01-17T23:46:12.861Z,8.40
2023-01-17T23:48:40.094Z,7.27
2023-01-17T23:51:08.309Z,6.20
2023-01-17T23:53:37.403Z,5.00
2023-01-17T23:56:11.176Z,4.87
2023-01-17T23:58:38.413Z,5.57
